This is the latest recevied weather packets stored in our database for station/object OSTR-WX. If no packets are shown the sender has not sent any weather packets the latest 10 day(s).
| Time | Temp. | Humidity | Pressure | Rain* | Wind** | Luminosity | Snow |
|---|---|---|---|---|---|---|---|
| 1777486505 | 4.44° C | 55% | 1030.6 hPa | - | - | - | - |
| 1777486498 | 4.44° C | 55% | 1030.6 hPa | - | - | - | - |
| 1777485541 | 5° C | 54% | 1030.4 hPa | - | - | - | - |
| 1777484584 | 6.67° C | 49% | 1030.1 hPa | - | - | - | - |
| 1777483634 | 7.78° C | 47% | 1029.8 hPa | - | - | - | - |
| 1777483629 | 7.78° C | 47% | 1029.8 hPa | - | - | - | - |
| 1777483627 | 7.78° C | 47% | 1029.8 hPa | - | - | - | - |
| 1777482670 | 11.11° C | 41% | 1029.3 hPa | - | - | - | - |
| 1777481715 | 11.67° C | 38% | 1028.9 hPa | - | - | - | - |
| 1777481714 | 11.67° C | 38% | 1028.9 hPa | - | - | - | - |
| 1777480759 | 12.22° C | 37% | 1028.8 hPa | - | - | - | - |
| 1777480758 | 12.22° C | 37% | 1028.8 hPa | - | - | - | - |
| 1777479799 | 10.56° C | 39% | 1028.9 hPa | - | - | - | - |
| 1777478842 | 10.56° C | 39% | 1028.9 hPa | - | - | - | - |
| 1777477885 | 12.22° C | 37% | 1028.3 hPa | - | - | - | - |
| 1777476928 | 12.22° C | 35% | 1028.1 hPa | - | - | - | - |
| 1777475980 | 11.67° C | 36% | 1028.2 hPa | - | - | - | - |
| 1777475973 | 11.67° C | 36% | 1028.2 hPa | - | - | - | - |
| 1777475014 | 9.44° C | 42% | 1028.5 hPa | - | - | - | - |
| 1777474064 | 10° C | 39% | 1028.3 hPa | - | - | - | - |
| 1777474057 | 10° C | 39% | 1028.3 hPa | - | - | - | - |
| 1777473107 | 10° C | 39% | 1028.2 hPa | - | - | - | - |
| 1777473100 | 10° C | 39% | 1028.2 hPa | - | - | - | - |
| 1777472143 | 12.78° C | 36% | 1027.7 hPa | - | - | - | - |
| 1777471188 | 12.22° C | 34% | 1027.5 hPa | - | - | - | - |
* Rain since midnight (hover to see other rain measurements)
** Current wind speed in m/s (hover to see current wind gust speed)